createdAt,value
2018-09-08T00:01:41.942Z,79.74
2018-09-08T00:04:11.874Z,79.48
2018-09-08T00:06:41.601Z,79.46
2018-09-08T00:09:11.309Z,79.53
2018-09-08T00:11:41.094Z,79.66
2018-09-08T00:14:10.875Z,79.59
2018-09-08T00:16:45.843Z,80.92
2018-09-08T00:19:20.690Z,80.75
2018-09-08T00:21:55.413Z,80.75
2018-09-08T00:24:30.476Z,81.52
2018-09-08T00:26:59.181Z,81.39
2018-09-08T00:29:36.705Z,81.89
2018-09-08T00:32:11.873Z,81.63
2018-09-08T00:34:42.096Z,82.11
2018-09-08T00:37:11.853Z,82.34
2018-09-08T00:39:43.272Z,81.90
2018-09-08T00:42:13.185Z,82.90
2018-09-08T00:44:42.860Z,83.14
2018-09-08T00:47:12.798Z,84.35
2018-09-08T00:49:42.591Z,84.66
2018-09-08T00:52:12.281Z,84.67
2018-09-08T00:54:42.050Z,85.37
2018-09-08T00:57:12.241Z,86.36
2018-09-08T00:59:42.113Z,86.25
2018-09-08T01:02:12.209Z,85.96
2018-09-08T01:04:42.392Z,84.79
2018-09-08T01:07:17.465Z,84.75
2018-09-08T01:09:47.463Z,84.31
2018-09-08T01:12:17.580Z,83.59
2018-09-08T01:14:47.315Z,85.37
2018-09-08T01:17:17.281Z,84.78
2018-09-08T01:19:47.225Z,86.27
2018-09-08T01:22:17.979Z,87.67
2018-09-08T01:24:48.042Z,88.07
2018-09-08T01:27:17.773Z,86.41
2018-09-08T01:29:47.507Z,86.91
2018-09-08T01:32:18.283Z,87.02
2018-09-08T01:34:47.986Z,88.00
2018-09-08T01:37:17.701Z,87.67
2018-09-08T01:39:47.510Z,87.60
2018-09-08T01:42:17.276Z,88.08
2018-09-08T01:44:47.084Z,87.20
2018-09-08T01:47:16.849Z,87.94
2018-09-08T01:49:46.576Z,88.18
2018-09-08T01:52:16.329Z,88.89
2018-09-08T01:54:46.351Z,88.85
2018-09-08T01:57:16.124Z,88.93
2018-09-08T01:59:45.969Z,89.40
2018-09-08T02:02:15.628Z,89.60
2018-09-08T02:04:45.331Z,90.04
2018-09-08T02:07:15.138Z,91.03
2018-09-08T02:09:44.781Z,92.03
2018-09-08T02:12:14.608Z,92.42
2018-09-08T02:14:44.293Z,91.35
2018-09-08T02:17:14.087Z,91.22
2018-09-08T02:19:43.792Z,89.71
2018-09-08T02:22:15.042Z,87.02
2018-09-08T02:24:44.723Z,86.36
2018-09-08T02:27:14.443Z,85.45
2018-09-08T02:29:44.139Z,85.37
2018-09-08T02:32:13.828Z,85.29
2018-09-08T02:34:43.728Z,85.32
2018-09-08T02:37:13.545Z,84.74
2018-09-08T02:39:43.225Z,84.36
2018-09-08T02:42:12.989Z,84.71
2018-09-08T02:44:42.627Z,84.15
2018-09-08T02:47:12.387Z,84.85
2018-09-08T02:49:58.609Z,86.14
2018-09-08T02:52:26.529Z,86.39
2018-09-08T02:54:54.410Z,86.74
2018-09-08T02:57:22.346Z,85.79
2018-09-08T02:59:50.199Z,86.32
2018-09-08T03:02:18.034Z,86.08
2018-09-08T03:04:45.926Z,86.49
2018-09-08T03:07:14.888Z,86.67
2018-09-08T03:09:45.317Z,88.42
2018-09-08T03:12:13.597Z,89.33
2018-09-08T03:14:41.432Z,90.87
2018-09-08T03:17:09.271Z,92.28
2018-09-08T03:19:37.117Z,92.20
2018-09-08T03:22:04.960Z,92.81
2018-09-08T03:24:32.879Z,91.73
2018-09-08T03:27:00.740Z,91.91
2018-09-08T03:29:28.598Z,91.42
2018-09-08T03:31:56.486Z,91.99
2018-09-08T03:34:24.316Z,91.67
2018-09-08T03:36:52.825Z,91.09
2018-09-08T03:39:20.663Z,89.88
2018-09-08T03:41:48.550Z,90.61
2018-09-08T03:44:16.507Z,90.28
2018-09-08T03:46:44.485Z,89.95
2018-09-08T03:49:12.437Z,90.64
2018-09-08T03:51:40.412Z,91.54
2018-09-08T03:54:08.272Z,91.35
2018-09-08T03:56:36.163Z,92.53
2018-09-08T03:59:04.186Z,91.29
2018-09-08T04:01:31.971Z,92.19
2018-09-08T04:04:01.660Z,93.45
2018-09-08T04:06:32.380Z,92.98
2018-09-08T04:09:02.211Z,93.27
2018-09-08T04:11:31.897Z,95.24
2018-09-08T04:14:01.730Z,95.14
2018-09-08T04:16:31.696Z,96.03
2018-09-08T04:19:01.404Z,95.95
2018-09-08T04:21:31.117Z,96.58
2018-09-08T04:24:00.797Z,96.58
2018-09-08T04:26:30.519Z,96.93
2018-09-08T04:29:00.285Z,97.87
2018-09-08T04:31:30.069Z,97.41
2018-09-08T04:33:59.859Z,96.66
2018-09-08T04:36:29.713Z,97.60
2018-09-08T04:38:59.397Z,96.66
2018-09-08T04:41:29.268Z,97.46
2018-09-08T04:43:59.220Z,97.86
2018-09-08T04:46:28.961Z,98.00
2018-09-08T04:48:58.721Z,98.04
2018-09-08T04:51:28.388Z,98.99
2018-09-08T04:53:58.207Z,99.34
2018-09-08T04:56:27.924Z,99.13
2018-09-08T04:58:57.609Z,100.00
2018-09-08T05:01:27.309Z,100.00
2018-09-08T05:03:57.048Z,100.00
2018-09-08T05:06:26.722Z,100.00
2018-09-08T05:08:56.581Z,99.97
2018-09-08T05:11:26.397Z,99.56
2018-09-08T05:13:56.092Z,99.53
2018-09-08T05:16:25.802Z,99.61
2018-09-08T05:18:55.493Z,99.77
2018-09-08T05:21:25.277Z,100.00
2018-09-08T05:23:54.975Z,100.00
2018-09-08T05:26:24.652Z,100.00
2018-09-08T05:28:54.323Z,100.00
2018-09-08T05:31:24.029Z,100.00
2018-09-08T05:33:53.837Z,98.97
2018-09-08T05:36:23.482Z,99.02
2018-09-08T05:38:53.121Z,98.25
2018-09-08T05:41:22.891Z,98.08
2018-09-08T05:43:52.550Z,97.43
2018-09-08T05:46:22.405Z,97.17
2018-09-08T05:48:52.145Z,96.96
2018-09-08T05:51:21.841Z,97.27
2018-09-08T05:53:51.559Z,96.54
2018-09-08T05:56:21.405Z,95.75
2018-09-08T05:58:51.923Z,95.37
2018-09-08T06:01:21.925Z,95.48
2018-09-08T06:03:52.522Z,93.95
2018-09-08T06:06:25.302Z,94.15
2018-09-08T06:08:55.610Z,93.25
2018-09-08T06:11:26.237Z,91.19
2018-09-08T06:13:56.498Z,90.28
2018-09-08T06:16:27.143Z,90.24
2018-09-08T06:18:57.702Z,88.25
2018-09-08T06:21:28.183Z,88.22
2018-09-08T06:23:59.756Z,85.76
2018-09-08T06:26:30.224Z,84.79
2018-09-08T06:29:00.470Z,85.22
2018-09-08T06:31:30.598Z,83.40
2018-09-08T06:34:00.330Z,83.67
2018-09-08T06:36:30.758Z,83.75
2018-09-08T06:39:01.120Z,81.85
2018-09-08T06:41:31.817Z,80.24
2018-09-08T06:44:02.386Z,79.26
2018-09-08T06:46:34.517Z,78.30
2018-09-08T06:49:05.266Z,75.90
2018-09-08T06:51:36.215Z,74.66
2018-09-08T06:54:06.344Z,71.15
2018-09-08T06:56:36.110Z,69.28
2018-09-08T06:59:07.255Z,67.62
2018-09-08T07:01:37.418Z,63.53
2018-09-08T07:04:07.353Z,62.19
2018-09-08T07:06:42.028Z,63.47
2018-09-08T07:09:12.245Z,63.10
2018-09-08T07:11:45.284Z,64.12
2018-09-08T07:14:15.079Z,66.16
2018-09-08T07:16:47.098Z,64.78
2018-09-08T07:19:16.842Z,66.44
2018-09-08T07:21:46.712Z,66.13
2018-09-08T07:24:19.987Z,66.44
2018-09-08T07:26:49.857Z,65.22
2018-09-08T07:29:19.604Z,64.63
2018-09-08T07:31:49.438Z,66.66
2018-09-08T07:34:19.226Z,65.65
2018-09-08T07:36:48.965Z,67.72
2018-09-08T07:39:19.674Z,67.29
2018-09-08T07:41:50.303Z,66.27
2018-09-08T07:44:19.950Z,64.84
2018-09-08T07:46:52.377Z,63.94
2018-09-08T07:49:22.036Z,62.57
2018-09-08T07:51:51.685Z,61.53
2018-09-08T07:54:21.356Z,61.93
2018-09-08T07:56:51.502Z,60.55
2018-09-08T07:59:23.454Z,58.55
2018-09-08T08:01:54.946Z,57.63
2018-09-08T08:04:25.520Z,55.58
2018-09-08T08:06:55.952Z,57.47
2018-09-08T08:09:26.025Z,58.41
2018-09-08T08:11:55.827Z,61.06
2018-09-08T08:14:25.650Z,57.25
2018-09-08T08:16:55.400Z,55.60
2018-09-08T08:19:25.140Z,55.92
2018-09-08T08:21:55.137Z,54.71
2018-09-08T08:24:24.875Z,53.42
2018-09-08T08:26:54.622Z,52.62
2018-09-08T08:29:24.497Z,53.80
2018-09-08T08:31:54.425Z,52.50
2018-09-08T08:34:24.329Z,49.15
2018-09-08T08:36:54.026Z,48.50
2018-09-08T08:39:23.745Z,47.08
2018-09-08T08:41:53.551Z,51.03
2018-09-08T08:44:25.275Z,50.46
2018-09-08T08:46:58.796Z,53.67
2018-09-08T08:49:35.098Z,53.31
2018-09-08T08:52:21.992Z,54.50
2018-09-08T08:54:56.217Z,52.41
2018-09-08T08:57:28.318Z,51.31
2018-09-08T08:59:58.166Z,52.79
2018-09-08T09:02:30.271Z,52.90
2018-09-08T09:05:01.332Z,50.17
2018-09-08T09:07:31.227Z,47.27
2018-09-08T09:10:02.091Z,44.91
2018-09-08T09:12:32.093Z,40.93
2018-09-08T09:15:02.233Z,42.28
2018-09-08T09:17:34.024Z,44.53
2018-09-08T09:20:20.525Z,41.96
2018-09-08T09:23:07.401Z,41.56
2018-09-08T09:25:37.282Z,44.73
2018-09-08T09:28:07.359Z,48.34
2018-09-08T09:30:37.131Z,46.80
2018-09-08T09:33:09.006Z,44.28
2018-09-08T09:35:38.691Z,44.88
2018-09-08T09:38:08.337Z,44.78
2018-09-08T09:40:38.553Z,46.54
2018-09-08T09:43:08.321Z,43.38
2018-09-08T09:45:38.132Z,40.34
2018-09-08T09:48:07.865Z,43.59
2018-09-08T09:50:37.695Z,42.67
2018-09-08T09:53:07.471Z,40.01
2018-09-08T09:55:37.085Z,38.65
2018-09-08T09:58:06.841Z,36.85
2018-09-08T10:00:42.438Z,36.35
2018-09-08T10:03:12.194Z,37.31
2018-09-08T10:05:42.272Z,38.82
2018-09-08T10:08:12.020Z,40.03
2018-09-08T10:10:41.718Z,40.87
2018-09-08T10:13:11.641Z,40.42
2018-09-08T10:15:41.377Z,41.60
2018-09-08T10:18:11.119Z,40.46
2018-09-08T10:20:40.807Z,37.37
2018-09-08T10:23:10.721Z,38.23
2018-09-08T10:25:40.380Z,36.20
2018-09-08T10:28:10.122Z,36.05
2018-09-08T10:30:39.931Z,37.86
2018-09-08T10:33:09.636Z,34.47
2018-09-08T10:35:39.502Z,34.35
2018-09-08T10:38:09.193Z,39.86
2018-09-08T10:40:38.978Z,37.06
2018-09-08T10:43:08.790Z,38.06
2018-09-08T10:45:38.726Z,37.05
2018-09-08T10:48:08.504Z,39.01
2018-09-08T10:50:38.248Z,42.03
2018-09-08T10:53:08.289Z,38.41
2018-09-08T10:55:37.973Z,36.17
2018-09-08T10:58:07.978Z,36.35
2018-09-08T11:00:37.737Z,35.05
2018-09-08T11:03:08.411Z,37.69
2018-09-08T11:05:38.295Z,39.00
2018-09-08T11:10:36.863Z,45.12
2018-09-08T11:13:07.059Z,42.02
2018-09-08T11:15:36.726Z,43.47
2018-09-08T11:18:06.610Z,44.59
2018-09-08T11:20:36.327Z,46.47
2018-09-08T11:23:06.124Z,42.50
2018-09-08T11:25:35.774Z,40.53
2018-09-08T11:28:05.553Z,42.03
2018-09-08T11:30:35.279Z,40.92
2018-09-08T11:33:05.443Z,40.13
2018-09-08T11:35:35.185Z,39.50
2018-09-08T11:38:05.299Z,40.15
2018-09-08T11:40:35.128Z,37.59
2018-09-08T11:43:05.253Z,36.46
2018-09-08T11:45:36.618Z,36.71
2018-09-08T11:48:08.397Z,38.50
2018-09-08T11:50:38.113Z,37.57
2018-09-08T11:53:07.875Z,35.96
2018-09-08T11:55:37.606Z,38.50
2018-09-08T11:58:07.488Z,39.53
2018-09-08T12:00:37.273Z,41.34
2018-09-08T12:03:07.254Z,43.61
2018-09-08T12:05:38.155Z,41.33
2018-09-08T12:08:08.622Z,40.12
2018-09-08T12:10:39.662Z,40.26
2018-09-08T12:13:09.548Z,38.69
2018-09-08T12:15:45.694Z,39.47
2018-09-08T12:18:17.971Z,40.05
2018-09-08T12:20:48.027Z,40.24
2018-09-08T12:23:18.091Z,37.49
2018-09-08T12:25:49.809Z,38.61
2018-09-08T12:28:22.474Z,38.50
2018-09-08T12:30:53.594Z,36.96
2018-09-08T12:33:23.347Z,34.83
2018-09-08T12:35:53.364Z,36.44
2018-09-08T12:38:23.935Z,35.64
2018-09-08T12:40:53.721Z,37.06
2018-09-08T12:43:24.218Z,37.71
2018-09-08T12:45:53.999Z,38.39
2018-09-08T12:48:23.732Z,40.42
2018-09-08T12:50:53.973Z,37.79
2018-09-08T12:53:25.108Z,36.08
2018-09-08T12:55:54.829Z,39.19
2018-09-08T12:58:25.662Z,37.03
2018-09-08T13:00:55.765Z,35.18
2018-09-08T13:03:28.519Z,35.65
2018-09-08T13:05:58.320Z,36.35
2018-09-08T13:08:29.268Z,36.75
2018-09-08T13:11:00.615Z,37.22
2018-09-08T13:13:31.763Z,36.72
2018-09-08T13:16:01.458Z,35.29
2018-09-08T13:18:31.161Z,35.80
2018-09-08T13:21:01.153Z,35.61
2018-09-08T13:23:30.829Z,36.19
2018-09-08T13:26:00.613Z,37.48
2018-09-08T13:28:30.479Z,36.05
2018-09-08T13:31:02.379Z,37.13
2018-09-08T13:33:33.962Z,37.01
2018-09-08T13:36:04.001Z,35.20
2018-09-08T13:38:36.236Z,35.28
2018-09-08T13:41:06.309Z,36.66
2018-09-08T13:43:36.007Z,37.55
2018-09-08T13:46:05.793Z,35.42
2018-09-08T13:48:35.477Z,37.24
2018-09-08T13:51:05.456Z,35.89
2018-09-08T13:53:35.574Z,36.52
2018-09-08T13:56:05.402Z,36.45
2018-09-08T13:58:35.589Z,35.66
2018-09-08T14:01:06.081Z,35.75
2018-09-08T14:03:36.680Z,36.12
2018-09-08T14:06:07.309Z,35.39
2018-09-08T14:08:38.463Z,36.16
2018-09-08T14:11:08.328Z,34.64
2018-09-08T14:13:38.860Z,36.02
2018-09-08T14:16:08.597Z,36.31
2018-09-08T14:18:38.394Z,35.96
2018-09-08T14:21:08.214Z,37.35
2018-09-08T14:23:38.103Z,36.05
2018-09-08T14:26:09.325Z,35.44
2018-09-08T14:28:39.464Z,36.22
2018-09-08T14:31:09.976Z,35.28
2018-09-08T14:33:41.695Z,36.15
2018-09-08T14:36:11.689Z,35.23
2018-09-08T14:38:41.629Z,37.15
2018-09-08T14:41:12.422Z,38.67
2018-09-08T14:43:42.207Z,35.43
2018-09-08T14:46:12.193Z,36.07
2018-09-08T14:48:42.929Z,35.25
2018-09-08T14:51:12.876Z,34.24
2018-09-08T14:53:42.811Z,35.61
2018-09-08T14:56:14.078Z,36.20
2018-09-08T14:58:43.992Z,35.77
2018-09-08T15:01:13.959Z,37.89
2018-09-08T15:03:45.167Z,39.97
2018-09-08T15:06:16.034Z,39.16
2018-09-08T15:08:45.866Z,37.67
2018-09-08T15:11:15.574Z,38.70
2018-09-08T15:13:46.875Z,38.16
2018-09-08T15:16:16.692Z,39.00
2018-09-08T15:18:46.654Z,40.47
2018-09-08T15:21:16.407Z,38.60
2018-09-08T15:23:46.956Z,38.83
2018-09-08T15:26:16.961Z,41.53
2018-09-08T15:28:46.602Z,41.83
2018-09-08T15:31:16.455Z,40.68
2018-09-08T15:33:46.171Z,40.52
2018-09-08T15:36:15.887Z,44.16
2018-09-08T15:38:45.610Z,43.01
2018-09-08T15:41:15.389Z,42.84
2018-09-08T15:43:45.709Z,43.71
2018-09-08T15:46:15.390Z,42.61
2018-09-08T15:48:45.124Z,43.05
2018-09-08T15:51:14.831Z,42.68
2018-09-08T15:53:44.713Z,41.34
2018-09-08T15:56:14.438Z,41.61
2018-09-08T15:58:44.453Z,41.07
2018-09-08T16:01:14.180Z,42.13
2018-09-08T16:03:43.843Z,41.48
2018-09-08T16:06:13.769Z,41.11
2018-09-08T16:08:43.456Z,41.04
2018-09-08T16:11:13.135Z,43.18
2018-09-08T16:13:42.954Z,43.35
2018-09-08T16:16:12.823Z,42.85
2018-09-08T16:18:42.625Z,43.55
2018-09-08T16:21:12.374Z,43.85
2018-09-08T16:23:42.295Z,44.26
2018-09-08T16:26:12.186Z,44.42
2018-09-08T16:28:42.010Z,45.08
2018-09-08T16:31:11.672Z,44.99
2018-09-08T16:33:41.356Z,45.13
2018-09-08T16:36:11.830Z,45.89
2018-09-08T16:38:42.445Z,46.69
2018-09-08T16:41:14.810Z,45.34
2018-09-08T16:43:44.621Z,45.76
2018-09-08T16:46:14.516Z,47.25
2018-09-08T16:48:44.522Z,45.27
2018-09-08T16:51:14.566Z,47.62
2018-09-08T16:53:44.405Z,44.65
2018-09-08T16:56:14.182Z,47.48
2018-09-08T16:58:44.043Z,48.18
2018-09-08T17:01:13.795Z,49.11
2018-09-08T17:03:43.484Z,50.50
2018-09-08T17:06:14.073Z,50.44
2018-09-08T17:08:43.915Z,51.14
2018-09-08T17:11:13.593Z,52.45
2018-09-08T17:16:10.363Z,53.50
2018-09-08T17:18:40.698Z,54.69
2018-09-08T17:21:10.713Z,53.80
2018-09-08T17:23:40.799Z,53.13
2018-09-08T17:26:10.704Z,53.47
2018-09-08T17:28:40.777Z,54.33
2018-09-08T17:31:10.620Z,55.74
2018-09-08T17:33:41.473Z,57.32
2018-09-08T17:36:11.184Z,57.79
2018-09-08T17:38:40.933Z,56.77
2018-09-08T17:41:10.694Z,57.50
2018-09-08T17:43:40.354Z,57.46
2018-09-08T17:46:10.076Z,58.60
2018-09-08T17:48:41.916Z,59.36
2018-09-08T17:51:12.260Z,59.65
2018-09-08T17:53:42.297Z,59.08
2018-09-08T17:56:12.173Z,59.43
2018-09-08T17:58:42.282Z,61.97
2018-09-08T18:01:12.412Z,61.40
2018-09-08T18:03:43.004Z,61.52
2018-09-08T18:06:12.922Z,62.01
2018-09-08T18:08:43.687Z,62.17
2018-09-08T18:11:13.561Z,63.37
2018-09-08T18:13:43.428Z,63.68
2018-09-08T18:16:14.029Z,64.54
2018-09-08T18:18:43.829Z,64.89
2018-09-08T18:21:13.750Z,64.71
2018-09-08T18:23:43.659Z,65.06
2018-09-08T18:26:13.576Z,64.80
2018-09-08T18:28:43.525Z,65.46
2018-09-08T18:31:13.642Z,66.44
2018-09-08T18:33:43.467Z,65.39
2018-09-08T18:36:13.657Z,67.71
2018-09-08T18:38:43.824Z,67.61
2018-09-08T18:41:13.833Z,67.91
2018-09-08T18:43:44.039Z,67.60
2018-09-08T18:46:14.226Z,67.62
2018-09-08T18:48:44.524Z,69.95
2018-09-08T18:51:14.579Z,68.79
2018-09-08T18:53:44.763Z,69.27
2018-09-08T18:56:14.993Z,68.79
2018-09-08T18:58:45.122Z,69.55
2018-09-08T19:01:16.191Z,69.20
2018-09-08T19:03:46.084Z,71.69
2018-09-08T19:06:15.961Z,71.88
2018-09-08T19:08:46.239Z,71.51
2018-09-08T19:11:16.581Z,71.00
2018-09-08T19:13:46.600Z,70.05
2018-09-08T19:16:16.500Z,71.22
2018-09-08T19:18:46.650Z,70.82
2018-09-08T19:21:17.026Z,70.88
2018-09-08T19:23:51.340Z,74.98
2018-09-08T19:26:21.449Z,74.37
2018-09-08T19:28:56.495Z,75.36
2018-09-08T19:31:26.506Z,75.58
2018-09-08T19:33:58.350Z,76.69
2018-09-08T19:36:28.594Z,77.43
2018-09-08T19:38:58.414Z,77.94
2018-09-08T19:41:28.974Z,78.44
2018-09-08T19:43:58.673Z,78.52
2018-09-08T19:46:33.640Z,78.52
2018-09-08T19:49:03.425Z,78.15
2018-09-08T19:51:33.154Z,77.62
2018-09-08T19:54:02.995Z,78.30
2018-09-08T19:56:38.042Z,78.40
2018-09-08T19:59:07.932Z,78.12
2018-09-08T20:01:37.657Z,78.90
2018-09-08T20:04:07.455Z,81.92
2018-09-08T20:06:37.154Z,81.04
2018-09-08T20:09:08.320Z,80.60
2018-09-08T20:11:37.986Z,81.44
2018-09-08T20:14:08.107Z,81.34
2018-09-08T20:16:38.865Z,81.40
2018-09-08T20:19:09.276Z,81.32
2018-09-08T20:21:41.557Z,82.09
2018-09-08T20:24:11.416Z,81.50
2018-09-08T20:26:41.281Z,80.71
2018-09-08T20:29:11.128Z,79.84
2018-09-08T20:31:40.916Z,80.44
2018-09-08T20:34:10.807Z,81.18
2018-09-08T20:36:44.210Z,81.57
2018-09-08T20:39:16.165Z,80.65
2018-09-08T20:41:46.890Z,80.65
2018-09-08T20:44:17.437Z,80.11
2018-09-08T20:46:47.591Z,79.97
2018-09-08T20:49:17.859Z,81.25
2018-09-08T20:51:47.617Z,79.84
2018-09-08T20:54:17.845Z,79.69
2018-09-08T20:56:47.775Z,80.58
2018-09-08T20:59:17.796Z,80.67
2018-09-08T21:01:47.569Z,81.14
2018-09-08T21:04:17.358Z,81.77
2018-09-08T21:06:47.739Z,83.67
2018-09-08T21:09:17.748Z,82.82
2018-09-08T21:11:47.807Z,82.73
2018-09-08T21:14:17.482Z,83.41
2018-09-08T21:16:47.698Z,83.81
2018-09-08T21:19:18.438Z,83.25
2018-09-08T21:21:48.572Z,83.31
2018-09-08T21:24:18.434Z,84.23
2018-09-08T21:26:48.659Z,83.89
2018-09-08T21:29:18.805Z,82.62
2018-09-08T21:31:48.757Z,84.70
2018-09-08T21:34:19.159Z,84.15
2018-09-08T21:36:49.036Z,84.38
2018-09-08T21:39:18.877Z,85.15
2018-09-08T21:41:48.958Z,84.30
2018-09-08T21:44:20.078Z,85.36
2018-09-08T21:46:49.828Z,84.94
2018-09-08T21:49:19.621Z,85.32
2018-09-08T21:51:49.331Z,84.70
2018-09-08T21:54:19.151Z,85.32
2018-09-08T21:56:48.941Z,86.14
2018-09-08T21:59:18.690Z,85.72
2018-09-08T22:01:48.460Z,85.74
2018-09-08T22:04:18.418Z,86.89
2018-09-08T22:06:48.158Z,85.75
2018-09-08T22:09:18.077Z,84.97
2018-09-08T22:11:47.828Z,84.36
2018-09-08T22:14:17.745Z,84.00
2018-09-08T22:16:48.007Z,84.20
2018-09-08T22:19:18.254Z,84.79
2018-09-08T22:21:48.334Z,84.31
2018-09-08T22:24:18.120Z,84.06
2018-09-08T22:26:47.931Z,85.16
2018-09-08T22:29:18.019Z,85.76
2018-09-08T22:31:47.841Z,85.40
2018-09-08T22:34:17.779Z,86.13
2018-09-08T22:36:47.553Z,87.17
2018-09-08T22:39:17.465Z,87.47
2018-09-08T22:41:47.161Z,88.55
2018-09-08T22:44:16.992Z,87.71
2018-09-08T22:46:46.892Z,87.80
2018-09-08T22:49:16.657Z,87.68
2018-09-08T22:51:46.437Z,88.29
2018-09-08T22:54:16.272Z,88.45
2018-09-08T22:56:46.189Z,89.50
2018-09-08T22:59:16.073Z,88.88
2018-09-08T23:01:45.879Z,88.91
2018-09-08T23:04:15.805Z,89.52
2018-09-08T23:06:45.601Z,89.91
2018-09-08T23:09:15.357Z,89.33
2018-09-08T23:11:45.065Z,89.39
2018-09-08T23:14:14.830Z,89.73
2018-09-08T23:16:44.545Z,91.10
2018-09-08T23:19:14.285Z,90.67
2018-09-08T23:21:43.954Z,90.82
2018-09-08T23:24:13.984Z,90.61
2018-09-08T23:26:43.647Z,90.64
2018-09-08T23:29:13.366Z,89.92
2018-09-08T23:31:43.258Z,90.39
2018-09-08T23:34:12.980Z,91.03
2018-09-08T23:36:42.788Z,91.17
2018-09-08T23:39:12.536Z,90.84
2018-09-08T23:41:42.201Z,91.27
2018-09-08T23:44:12.145Z,91.65
2018-09-08T23:46:42.123Z,91.44
2018-09-08T23:49:11.800Z,91.37
2018-09-08T23:51:41.479Z,91.14
2018-09-08T23:54:12.233Z,92.29
2018-09-08T23:56:41.941Z,93.56
2018-09-08T23:59:11.640Z,93.07
